createdAt,value
2018-04-24T00:00:13.565Z,4.83
2018-04-24T00:02:41.812Z,4.90
2018-04-24T00:05:09.288Z,5.03
2018-04-24T00:07:36.763Z,3.97
2018-04-24T00:10:04.241Z,4.83
2018-04-24T00:12:32.471Z,3.97
2018-04-24T00:14:59.933Z,4.50
2018-04-24T00:17:27.390Z,4.97
2018-04-24T00:19:55.654Z,5.10
2018-04-24T00:22:23.865Z,4.73
2018-04-24T00:24:51.319Z,4.90
2018-04-24T00:27:18.802Z,5.27
2018-04-24T00:29:46.307Z,4.70
2018-04-24T00:32:13.779Z,5.30
2018-04-24T00:34:41.259Z,4.17
2018-04-24T00:37:08.706Z,5.00
2018-04-24T00:39:36.179Z,4.57
2018-04-24T00:42:03.638Z,4.47
2018-04-24T00:44:32.005Z,4.10
2018-04-24T00:46:59.454Z,4.80
2018-04-24T00:49:26.910Z,4.43
2018-04-24T00:51:55.121Z,4.00
2018-04-24T00:54:22.562Z,4.73
2018-04-24T00:56:50.074Z,4.60
2018-04-24T00:59:18.289Z,5.07
2018-04-24T01:01:45.744Z,4.23
2018-04-24T01:04:13.571Z,5.00
2018-04-24T01:06:41.088Z,5.40
2018-04-24T01:09:08.498Z,5.93
2018-04-24T01:11:35.967Z,4.90
2018-04-24T01:14:03.626Z,5.00
2018-04-24T01:16:31.066Z,5.10
2018-04-24T01:18:58.555Z,5.37
2018-04-24T01:21:26.011Z,4.77
2018-04-24T01:23:53.476Z,5.53
2018-04-24T01:26:21.703Z,5.07
2018-04-24T01:28:49.928Z,5.00
2018-04-24T01:31:17.377Z,5.20
2018-04-24T01:33:44.822Z,6.40
2018-04-24T01:36:12.362Z,5.60
2018-04-24T01:38:39.802Z,5.93
2018-04-24T01:41:07.277Z,5.20
2018-04-24T01:43:35.602Z,5.90
2018-04-24T01:46:03.047Z,5.10
2018-04-24T01:48:30.551Z,6.23
2018-04-24T01:50:58.777Z,6.30
2018-04-24T01:53:26.215Z,6.10
2018-04-24T01:55:53.762Z,5.67
2018-04-24T01:58:21.220Z,7.17
2018-04-24T02:00:48.662Z,6.03
2018-04-24T02:03:16.122Z,6.13
2018-04-24T02:05:43.580Z,6.77
2018-04-24T02:08:11.795Z,5.80
2018-04-24T02:10:39.241Z,7.60
2018-04-24T02:13:06.708Z,7.13
2018-04-24T02:15:34.171Z,6.30
2018-04-24T02:18:02.399Z,6.43
2018-04-24T02:20:29.858Z,6.50
2018-04-24T02:22:58.071Z,7.60
2018-04-24T02:25:25.598Z,7.87
2018-04-24T02:27:55.869Z,6.70
2018-04-24T02:30:23.352Z,6.63
2018-04-24T02:32:50.809Z,5.90
2018-04-24T02:35:18.267Z,7.23
2018-04-24T02:37:45.778Z,8.03
2018-04-24T02:40:13.234Z,7.80
2018-04-24T02:42:41.411Z,7.50
2018-04-24T02:45:08.867Z,7.07
2018-04-24T02:47:36.370Z,6.63
2018-04-24T02:50:03.843Z,6.37
2018-04-24T02:52:31.323Z,8.17
2018-04-24T02:54:58.794Z,11.87
2018-04-24T02:57:26.251Z,15.60
2018-04-24T02:59:53.712Z,7.90
2018-04-24T03:02:21.173Z,8.27
2018-04-24T03:04:49.559Z,8.40
2018-04-24T03:07:17.071Z,7.40
2018-04-24T03:09:44.539Z,7.10
2018-04-24T03:12:12.023Z,6.70
2018-04-24T03:14:39.499Z,6.80
2018-04-24T03:17:06.940Z,7.87
2018-04-24T03:19:34.378Z,7.60
2018-04-24T03:22:01.839Z,8.13
2018-04-24T03:24:29.366Z,6.93
2018-04-24T03:26:56.826Z,7.13
2018-04-24T03:29:24.273Z,8.60
2018-04-24T03:31:51.726Z,7.30
2018-04-24T03:34:19.177Z,9.30
2018-04-24T03:36:46.643Z,7.40
2018-04-24T03:39:14.854Z,8.20
2018-04-24T03:41:42.321Z,8.53
2018-04-24T03:44:09.771Z,8.80
2018-04-24T03:46:37.285Z,7.20
2018-04-24T03:49:04.743Z,8.27
2018-04-24T03:51:32.206Z,8.23
2018-04-24T03:53:59.669Z,7.30
2018-04-24T03:56:27.127Z,9.10
2018-04-24T03:58:54.590Z,8.47
2018-04-24T04:01:22.073Z,9.77
2018-04-24T04:03:49.591Z,9.20
2018-04-24T04:06:17.046Z,16.77
2018-04-24T04:08:44.519Z,8.87
2018-04-24T04:11:12.777Z,8.50
2018-04-24T04:13:41.026Z,8.47
2018-04-24T04:16:08.484Z,9.10
2018-04-24T04:18:48.614Z,8.13
2018-04-24T04:21:27.909Z,8.33
2018-04-24T04:24:07.278Z,9.40
2018-04-24T04:26:34.748Z,8.10
2018-04-24T04:29:03.851Z,8.20
2018-04-24T04:31:31.366Z,8.53
2018-04-24T04:33:58.820Z,8.30
2018-04-24T04:36:26.315Z,8.07
2018-04-24T04:38:54.533Z,8.57
2018-04-24T04:41:22.012Z,7.70
2018-04-24T04:43:50.254Z,8.93
2018-04-24T04:46:17.695Z,16.10
2018-04-24T04:48:45.167Z,14.70
2018-04-24T04:51:13.396Z,12.17
2018-04-24T04:53:40.865Z,8.40
2018-04-24T04:56:09.164Z,9.53
2018-04-24T04:58:36.567Z,8.90
2018-04-24T05:01:04.807Z,9.40
2018-04-24T05:03:32.297Z,8.93
2018-04-24T05:05:59.838Z,9.97
2018-04-24T05:08:27.359Z,11.03
2018-04-24T05:10:54.819Z,9.17
2018-04-24T05:13:22.331Z,9.67
2018-04-24T05:15:49.788Z,9.67
2018-04-24T05:18:17.260Z,8.47
2018-04-24T05:20:44.699Z,9.20
2018-04-24T05:23:12.210Z,10.67
2018-04-24T05:25:39.755Z,9.23
2018-04-24T05:28:07.963Z,10.20
2018-04-24T05:30:35.432Z,11.33
2018-04-24T05:33:02.907Z,10.50
2018-04-24T05:35:30.466Z,10.07
2018-04-24T05:37:58.967Z,10.37
2018-04-24T05:40:26.422Z,11.57
2018-04-24T05:42:53.881Z,10.03
2018-04-24T05:45:21.397Z,10.60
2018-04-24T05:47:49.593Z,11.07
2018-04-24T05:50:17.109Z,9.77
2018-04-24T05:52:44.634Z,10.00
2018-04-24T05:55:12.130Z,10.77
2018-04-24T05:57:39.651Z,10.13
2018-04-24T06:00:07.738Z,9.67
2018-04-24T06:02:35.975Z,10.43
2018-04-24T06:05:03.446Z,10.07
2018-04-24T06:07:31.670Z,8.50
2018-04-24T06:09:59.125Z,10.47
2018-04-24T06:12:26.586Z,9.97
2018-04-24T06:14:54.042Z,9.77
2018-04-24T06:17:21.479Z,10.90
2018-04-24T06:19:48.929Z,8.87
2018-04-24T06:22:17.239Z,9.50
2018-04-24T06:24:44.739Z,9.43
2018-04-24T06:27:12.182Z,9.27
2018-04-24T06:29:39.666Z,8.77
2018-04-24T06:32:07.112Z,9.40
2018-04-24T06:34:34.567Z,9.10
2018-04-24T06:37:02.023Z,9.00
2018-04-24T06:39:29.467Z,8.00
2018-04-24T06:41:56.932Z,7.60
2018-04-24T06:44:25.160Z,8.30
2018-04-24T06:46:52.608Z,8.40
2018-04-24T06:49:20.079Z,8.80
2018-04-24T06:51:47.625Z,8.10
2018-04-24T06:54:15.063Z,7.80
2018-04-24T06:56:42.507Z,7.87
2018-04-24T06:59:09.964Z,7.40
2018-04-24T07:01:43.120Z,7.70
2018-04-24T07:04:10.580Z,7.47
2018-04-24T07:06:38.054Z,8.43
2018-04-24T07:09:06.437Z,7.00
2018-04-24T07:11:33.900Z,7.60
2018-04-24T07:14:01.350Z,6.77
2018-04-24T07:16:28.922Z,8.00
2018-04-24T07:18:56.414Z,7.30
2018-04-24T07:21:23.867Z,8.53
2018-04-24T07:23:51.353Z,7.30
2018-04-24T07:26:18.837Z,6.00
2018-04-24T07:28:46.294Z,6.23
2018-04-24T07:31:13.747Z,6.43
2018-04-24T07:33:41.211Z,6.77
2018-04-24T07:36:08.695Z,7.23
2018-04-24T07:38:36.228Z,7.00
2018-04-24T07:41:04.479Z,6.70
2018-04-24T07:43:31.903Z,6.70
2018-04-24T07:45:59.358Z,5.90
2018-04-24T07:48:26.809Z,6.07
2018-04-24T07:50:55.049Z,6.60
2018-04-24T07:53:22.509Z,7.30
2018-04-24T07:55:50.910Z,6.60
2018-04-24T07:58:18.345Z,7.00
2018-04-24T08:00:45.809Z,7.43
2018-04-24T08:03:13.266Z,7.67
2018-04-24T08:05:40.752Z,7.30
2018-04-24T08:08:09.119Z,8.33
2018-04-24T08:10:36.563Z,7.30
2018-04-24T08:13:04.774Z,6.77
2018-04-24T08:15:32.295Z,7.93
2018-04-24T08:17:59.776Z,6.67
2018-04-24T08:20:27.232Z,7.87
2018-04-24T08:22:54.749Z,7.30
2018-04-24T08:25:22.193Z,7.80
2018-04-24T08:27:51.110Z,7.50
2018-04-24T08:30:18.566Z,7.33
2018-04-24T08:32:46.830Z,6.70
2018-04-24T08:35:14.278Z,7.43
2018-04-24T08:37:41.734Z,7.10
2018-04-24T08:40:09.265Z,6.80
2018-04-24T08:42:36.647Z,6.27
2018-04-24T08:45:04.166Z,5.57
2018-04-24T08:47:31.628Z,6.50
2018-04-24T08:49:59.054Z,5.73
2018-04-24T08:52:27.574Z,6.03
2018-04-24T08:54:55.031Z,6.40
2018-04-24T08:57:22.712Z,6.13
2018-04-24T08:59:50.191Z,6.87
2018-04-24T09:02:17.660Z,6.47
2018-04-24T09:04:46.684Z,6.13
2018-04-24T09:07:14.146Z,7.33
2018-04-24T09:09:41.592Z,6.20
2018-04-24T09:12:09.636Z,5.80
2018-04-24T09:14:37.080Z,7.03
2018-04-24T09:17:04.533Z,6.37
2018-04-24T09:19:32.805Z,6.80
2018-04-24T09:22:00.267Z,6.03
2018-04-24T09:24:27.722Z,6.60
2018-04-24T09:26:56.070Z,5.27
2018-04-24T09:29:25.351Z,6.10
2018-04-24T09:31:52.845Z,6.20
2018-04-24T09:34:20.313Z,5.43
2018-04-24T09:36:47.749Z,5.67
2018-04-24T09:39:15.204Z,5.40
2018-04-24T09:41:42.663Z,5.67
2018-04-24T09:44:10.119Z,4.70
2018-04-24T09:46:38.338Z,5.10
2018-04-24T09:49:05.794Z,6.30
2018-04-24T09:51:33.252Z,5.33
2018-04-24T09:54:00.753Z,4.70
2018-04-24T09:56:28.195Z,4.83
2018-04-24T09:58:55.665Z,5.07
2018-04-24T10:01:27.149Z,4.90
2018-04-24T10:03:55.354Z,5.37
2018-04-24T10:06:22.820Z,5.50
2018-04-24T10:08:50.296Z,4.63
2018-04-24T10:11:18.496Z,5.60
2018-04-24T10:13:46.042Z,5.77
2018-04-24T10:16:13.418Z,5.30
2018-04-24T10:18:41.496Z,4.90
2018-04-24T10:21:09.119Z,4.77
2018-04-24T10:23:36.581Z,5.00
2018-04-24T10:26:04.811Z,5.20
2018-04-24T10:28:32.309Z,4.90
2018-04-24T10:30:59.769Z,4.73
2018-04-24T10:33:27.224Z,3.90
2018-04-24T10:35:54.671Z,5.43
2018-04-24T10:38:22.154Z,4.80
2018-04-24T10:40:50.402Z,4.90
2018-04-24T10:43:17.862Z,6.87
2018-04-24T10:45:46.075Z,4.97
2018-04-24T10:48:13.524Z,4.43
2018-04-24T10:50:41.011Z,5.23
2018-04-24T10:53:08.481Z,4.40
2018-04-24T10:55:36.075Z,4.27
2018-04-24T10:58:03.535Z,5.10
2018-04-24T11:00:30.990Z,4.20
2018-04-24T11:02:59.302Z,4.80
2018-04-24T11:05:26.755Z,4.30
2018-04-24T11:07:54.285Z,3.97
2018-04-24T11:10:21.737Z,4.40
2018-04-24T11:12:49.185Z,3.67
2018-04-24T11:15:16.648Z,3.70
2018-04-24T11:17:44.107Z,4.33
2018-04-24T11:20:12.333Z,3.47
2018-04-24T11:22:39.858Z,3.20
2018-04-24T11:25:07.240Z,3.70
2018-04-24T11:27:34.680Z,3.20
2018-04-24T11:30:02.152Z,4.20
2018-04-24T11:32:29.757Z,4.20
2018-04-24T11:34:57.178Z,4.03
2018-04-24T11:37:24.674Z,4.60
2018-04-24T11:39:52.891Z,3.80
2018-04-24T11:42:20.350Z,3.63
2018-04-24T11:44:47.821Z,3.77
2018-04-24T11:47:16.183Z,4.07
2018-04-24T11:49:44.431Z,4.13
2018-04-24T11:52:11.914Z,4.50
2018-04-24T11:54:39.354Z,3.93
2018-04-24T11:57:06.906Z,5.37
2018-04-24T11:59:34.313Z,3.97
2018-04-24T12:02:01.762Z,3.93
2018-04-24T12:04:29.198Z,3.70
2018-04-24T12:06:57.436Z,4.20
2018-04-24T12:09:24.951Z,4.27
2018-04-24T12:11:52.420Z,4.40
2018-04-24T12:14:19.861Z,4.50
2018-04-24T12:16:47.355Z,4.80
2018-04-24T12:19:14.959Z,4.00
2018-04-24T12:21:42.406Z,4.60
2018-04-24T12:24:09.845Z,3.83
2018-04-24T12:26:37.303Z,3.93
2018-04-24T12:29:05.575Z,4.33
2018-04-24T12:31:33.037Z,5.00
2018-04-24T12:34:00.492Z,4.23
2018-04-24T12:36:27.967Z,4.47
2018-04-24T12:38:55.963Z,3.83
2018-04-24T12:41:23.364Z,3.73
2018-04-24T12:43:50.813Z,3.90
2018-04-24T12:46:18.249Z,5.40
2018-04-24T12:48:47.596Z,5.23
2018-04-24T12:51:15.031Z,4.47
2018-04-24T12:53:42.505Z,3.97
2018-04-24T12:56:10.002Z,3.57
2018-04-24T12:58:37.451Z,4.30
2018-04-24T13:01:04.955Z,3.97
2018-04-24T13:03:32.410Z,3.60
2018-04-24T13:05:59.875Z,3.83
2018-04-24T13:08:28.109Z,3.60
2018-04-24T13:10:55.554Z,3.43
2018-04-24T13:13:23.011Z,3.13
2018-04-24T13:15:50.466Z,6.53
2018-04-24T13:18:19.031Z,6.07
2018-04-24T13:20:46.454Z,3.83
2018-04-24T13:23:13.916Z,3.97
2018-04-24T13:25:41.415Z,3.97
2018-04-24T13:28:10.113Z,3.73
2018-04-24T13:30:37.550Z,4.23
2018-04-24T13:33:05.953Z,5.50
2018-04-24T13:35:33.404Z,4.00
2018-04-24T13:38:00.871Z,3.60
2018-04-24T13:40:28.728Z,3.43
2018-04-24T13:42:56.184Z,3.50
2018-04-24T13:45:23.641Z,2.90
2018-04-24T13:47:51.102Z,3.43
2018-04-24T13:50:19.329Z,4.03
2018-04-24T13:52:46.793Z,3.40
2018-04-24T13:55:14.287Z,3.50
2018-04-24T13:57:42.371Z,3.40
2018-04-24T14:00:09.818Z,2.77
2018-04-24T14:02:37.288Z,3.10
2018-04-24T14:05:04.768Z,3.27
2018-04-24T14:07:32.198Z,3.40
2018-04-24T14:10:00.413Z,3.20
2018-04-24T14:12:27.868Z,3.10
2018-04-24T14:14:55.350Z,3.00
2018-04-24T14:17:23.655Z,3.70
2018-04-24T14:19:51.124Z,3.03
2018-04-24T14:22:18.619Z,3.77
2018-04-24T14:24:46.078Z,2.90
2018-04-24T14:27:13.536Z,3.77
2018-04-24T14:29:40.993Z,3.17
2018-04-24T14:32:08.463Z,4.67
2018-04-24T14:34:36.727Z,2.77
2018-04-24T14:37:04.962Z,2.90
2018-04-24T14:39:32.410Z,4.43
2018-04-24T14:41:59.867Z,3.33
2018-04-24T14:44:28.094Z,6.43
2018-04-24T14:46:55.550Z,9.47
2018-04-24T14:49:23.162Z,3.50
2018-04-24T14:51:50.617Z,3.37
2018-04-24T14:54:19.099Z,3.50
2018-04-24T14:56:46.806Z,2.73
2018-04-24T14:59:14.263Z,4.37
2018-04-24T15:01:41.723Z,3.80
2018-04-24T15:04:09.400Z,4.00
2018-04-24T15:06:42.841Z,3.60
2018-04-24T15:09:10.394Z,4.10
2018-04-24T15:11:37.835Z,2.90
2018-04-24T15:14:05.309Z,3.77
2018-04-24T15:16:32.802Z,3.60
2018-04-24T15:19:00.264Z,2.90
2018-04-24T15:21:27.723Z,3.50
2018-04-24T15:23:55.166Z,2.70
2018-04-24T15:26:22.623Z,3.90
2018-04-24T15:28:50.080Z,3.67
2018-04-24T15:31:18.315Z,3.43
2018-04-24T15:33:45.746Z,3.60
2018-04-24T15:36:13.411Z,4.13
2018-04-24T15:38:40.854Z,3.73
2018-04-24T15:41:08.315Z,3.30
2018-04-24T15:43:35.757Z,3.47
2018-04-24T15:46:04.016Z,3.43
2018-04-24T15:48:31.494Z,3.80
2018-04-24T15:50:59.399Z,3.43
2018-04-24T15:53:26.827Z,3.83
2018-04-24T15:55:55.291Z,3.10
2018-04-24T15:58:22.779Z,3.30
2018-04-24T16:00:50.307Z,3.17
2018-04-24T16:03:18.628Z,3.87
2018-04-24T16:05:46.083Z,3.97
2018-04-24T16:08:13.541Z,3.80
2018-04-24T16:10:41.030Z,3.60
2018-04-24T16:13:08.514Z,3.67
2018-04-24T16:15:35.979Z,3.60
2018-04-24T16:18:03.455Z,4.00
2018-04-24T16:20:31.662Z,3.50
2018-04-24T16:22:59.923Z,3.83
2018-04-24T16:25:27.395Z,3.80
2018-04-24T16:27:54.841Z,4.03
2018-04-24T16:30:23.070Z,3.90
2018-04-24T16:32:50.547Z,4.77
2018-04-24T16:35:18.746Z,5.33
2018-04-24T16:37:46.207Z,4.23
2018-04-24T16:40:13.665Z,4.00
2018-04-24T16:42:41.167Z,5.07
2018-04-24T16:45:08.647Z,3.37
2018-04-24T16:47:36.098Z,3.87
2018-04-24T16:50:03.550Z,3.33
2018-04-24T16:52:31.032Z,4.30
2018-04-24T16:54:58.541Z,3.73
2018-04-24T16:57:26.006Z,3.40
2018-04-24T16:59:54.199Z,4.47
2018-04-24T17:02:21.653Z,4.87
2018-04-24T17:04:49.126Z,4.70
2018-04-24T17:07:16.570Z,4.70
2018-04-24T17:09:44.048Z,3.40
2018-04-24T17:12:11.505Z,3.57
2018-04-24T17:14:38.939Z,3.90
2018-04-24T17:17:06.384Z,3.30
2018-04-24T17:19:33.856Z,3.90
2018-04-24T17:22:01.446Z,3.90
2018-04-24T17:24:28.873Z,3.77
2018-04-24T17:26:56.315Z,3.30
2018-04-24T17:29:23.809Z,3.83
2018-04-24T17:31:51.278Z,3.50
2018-04-24T17:34:21.265Z,3.43
2018-04-24T17:36:48.766Z,3.80
2018-04-24T17:39:16.985Z,4.37
2018-04-24T17:41:45.200Z,3.63
2018-04-24T17:44:13.452Z,4.20
2018-04-24T17:46:41.651Z,4.10
2018-04-24T17:49:09.179Z,5.27
2018-04-24T17:51:36.653Z,5.10
2018-04-24T17:54:04.114Z,4.63
2018-04-24T17:56:31.590Z,4.43
2018-04-24T17:58:59.839Z,5.07
2018-04-24T18:01:28.065Z,3.87
2018-04-24T18:03:55.567Z,3.50
2018-04-24T18:06:23.051Z,4.70
2018-04-24T18:08:50.527Z,4.57
2018-04-24T18:11:18.770Z,5.37
2018-04-24T18:13:46.239Z,5.93
2018-04-24T18:16:13.698Z,6.67
2018-04-24T18:18:41.179Z,6.00
2018-04-24T18:21:08.638Z,6.43
2018-04-24T18:23:36.110Z,5.07
2018-04-24T18:26:04.369Z,6.00
2018-04-24T18:28:33.021Z,5.23
2018-04-24T18:31:00.519Z,6.10
2018-04-24T18:33:27.979Z,4.97
2018-04-24T18:35:56.346Z,5.20
2018-04-24T18:38:23.819Z,5.00
2018-04-24T18:40:51.317Z,4.03
2018-04-24T18:43:18.777Z,4.87
2018-04-24T18:45:46.352Z,4.40
2018-04-24T18:48:13.810Z,4.60
2018-04-24T18:50:42.044Z,4.43
2018-04-24T18:53:09.578Z,5.03
2018-04-24T18:55:37.047Z,5.20
2018-04-24T18:58:04.525Z,5.90
2018-04-24T19:00:31.987Z,4.80
2018-04-24T19:02:59.414Z,5.50
2018-04-24T19:05:26.898Z,5.30
2018-04-24T19:07:54.401Z,5.80
2018-04-24T19:10:21.823Z,6.53
2018-04-24T19:12:49.289Z,5.80
2018-04-24T19:15:16.736Z,6.30
2018-04-24T19:17:44.195Z,7.00
2018-04-24T19:20:11.685Z,7.27
2018-04-24T19:22:40.196Z,6.30
2018-04-24T19:25:13.383Z,7.20
2018-04-24T19:27:40.835Z,7.97
2018-04-24T19:30:08.287Z,8.50
2018-04-24T19:32:35.753Z,6.67
2018-04-24T19:35:03.207Z,7.87
2018-04-24T19:37:30.662Z,6.80
2018-04-24T19:40:04.653Z,6.40
2018-04-24T19:42:32.855Z,7.60
2018-04-24T19:45:00.310Z,8.80
2018-04-24T19:47:31.750Z,6.77
2018-04-24T19:50:04.831Z,6.53
2018-04-24T19:52:32.302Z,6.87
2018-04-24T19:55:05.492Z,6.70
2018-04-24T19:57:33.740Z,6.77
2018-04-24T20:00:01.226Z,5.13
2018-04-24T20:02:28.711Z,6.13
2018-04-24T20:04:56.165Z,5.00
2018-04-24T20:07:23.606Z,6.13
2018-04-24T20:09:51.087Z,5.90
2018-04-24T20:12:19.999Z,6.03
2018-04-24T20:14:47.489Z,6.73
2018-04-24T20:17:14.967Z,5.43
2018-04-24T20:19:42.435Z,5.80
2018-04-24T20:22:09.928Z,6.27
2018-04-24T20:24:37.396Z,6.50
2018-04-24T20:27:04.854Z,6.90
2018-04-24T20:29:32.390Z,6.10
2018-04-24T20:32:00.089Z,5.70
2018-04-24T20:34:28.318Z,6.43
2018-04-24T20:36:55.817Z,5.70
2018-04-24T20:39:23.388Z,6.23
2018-04-24T20:41:50.869Z,6.20
2018-04-24T20:44:18.351Z,7.30
2018-04-24T20:46:45.799Z,6.17
2018-04-24T20:49:13.278Z,5.80
2018-04-24T20:51:40.731Z,6.00
2018-04-24T20:54:08.182Z,7.77
2018-04-24T20:56:35.859Z,7.07
2018-04-24T20:59:04.098Z,7.03
2018-04-24T21:01:32.539Z,5.83
2018-04-24T21:04:00.008Z,7.00
2018-04-24T21:06:28.223Z,7.00
2018-04-24T21:08:55.729Z,7.27
2018-04-24T21:11:23.162Z,6.70
2018-04-24T21:13:51.421Z,6.70
2018-04-24T21:16:19.634Z,6.80
2018-04-24T21:18:47.106Z,6.80
2018-04-24T21:21:14.582Z,6.50
2018-04-24T21:23:42.794Z,7.40
2018-04-24T21:26:10.337Z,7.47
2018-04-24T21:28:37.717Z,6.80
2018-04-24T21:31:05.253Z,7.23
2018-04-24T21:33:33.519Z,6.37
2018-04-24T21:36:01.781Z,8.43
2018-04-24T21:38:30.954Z,7.33
2018-04-24T21:40:59.796Z,7.47
2018-04-24T21:43:27.318Z,7.20
2018-04-24T21:45:54.772Z,7.70
2018-04-24T21:48:22.218Z,8.33
2018-04-24T21:50:49.677Z,7.60
2018-04-24T21:53:17.297Z,7.40
2018-04-24T21:55:44.815Z,7.10
2018-04-24T21:58:13.148Z,6.77
2018-04-24T22:00:40.583Z,6.93
2018-04-24T22:03:08.927Z,7.80
2018-04-24T22:05:36.385Z,6.97
2018-04-24T22:08:03.842Z,7.43
2018-04-24T22:10:31.481Z,6.47
2018-04-24T22:12:58.924Z,6.80
2018-04-24T22:15:26.396Z,7.10
2018-04-24T22:17:54.627Z,7.00
2018-04-24T22:20:22.071Z,7.17
2018-04-24T22:22:49.510Z,6.90
2018-04-24T22:25:16.986Z,6.87
2018-04-24T22:27:44.443Z,6.30
2018-04-24T22:30:11.900Z,6.30
2018-04-24T22:32:39.354Z,6.77
2018-04-24T22:35:06.826Z,6.67
2018-04-24T22:37:34.307Z,6.80
2018-04-24T22:40:02.517Z,7.20
2018-04-24T22:42:30.000Z,6.20
2018-04-24T22:44:57.434Z,6.80
2018-04-24T22:47:24.908Z,6.17
2018-04-24T22:49:53.132Z,6.23
2018-04-24T22:52:21.472Z,6.63
2018-04-24T22:54:48.928Z,5.73
2018-04-24T22:57:16.387Z,6.63
2018-04-24T22:59:43.836Z,6.63
2018-04-24T23:02:12.084Z,5.73
2018-04-24T23:04:39.573Z,6.50
2018-04-24T23:07:08.264Z,6.80
2018-04-24T23:09:35.763Z,6.27
2018-04-24T23:12:15.847Z,6.57
2018-04-24T23:14:55.214Z,7.63
2018-04-24T23:17:35.296Z,6.80
2018-04-24T23:20:14.508Z,6.70
2018-04-24T23:22:41.966Z,7.03
2018-04-24T23:25:10.150Z,6.77
2018-04-24T23:27:37.596Z,6.23
2018-04-24T23:30:05.039Z,6.40
2018-04-24T23:32:32.494Z,6.50
2018-04-24T23:34:59.942Z,7.03
2018-04-24T23:37:27.399Z,5.97
2018-04-24T23:57:09.109Z,5.40
2018-04-24T23:59:36.571Z,5.17
